createdAt,value
2019-05-17T00:03:47.134Z,9.50
2019-05-17T00:08:50.949Z,9.40
2019-05-17T00:13:56.903Z,9.30
2019-05-17T00:19:01.494Z,9.10
2019-05-17T00:24:06.644Z,8.90
2019-05-17T00:29:12.063Z,9.00
2019-05-17T00:34:19.949Z,9.10
2019-05-17T00:39:27.214Z,9.10
2019-05-17T00:44:30.971Z,8.90
2019-05-17T00:49:37.538Z,8.70
2019-05-17T00:54:42.188Z,8.80
2019-05-17T00:59:47.615Z,8.60
2019-05-17T01:04:51.023Z,8.60
2019-05-17T01:09:57.622Z,8.60
2019-05-17T01:15:01.302Z,8.70
2019-05-17T01:20:11.242Z,8.40
2019-05-17T01:25:17.030Z,8.30
2019-05-17T01:30:26.682Z,8.20
2019-05-17T01:35:33.409Z,8.30
2019-05-17T01:40:37.654Z,8.40
2019-05-17T01:45:44.325Z,8.20
2019-05-17T01:50:52.292Z,8.30
2019-05-17T01:55:58.466Z,8.10
2019-05-17T02:01:07.364Z,8.10
2019-05-17T02:06:10.904Z,8.30
2019-05-17T02:11:18.468Z,8.30
2019-05-17T02:16:27.006Z,8.20
2019-05-17T02:21:32.187Z,8.10
2019-05-17T02:26:37.463Z,8.00
2019-05-17T02:31:43.554Z,7.90
2019-05-17T02:36:53.595Z,7.70
2019-05-17T02:41:53.422Z,7.70
2019-05-17T02:46:57.078Z,7.50
2019-05-17T02:52:03.201Z,7.30
2019-05-17T02:57:14.276Z,7.30
2019-05-17T03:02:16.999Z,7.10
2019-05-17T03:07:23.176Z,7.10
2019-05-17T03:12:26.988Z,7.10
2019-05-17T03:17:33.543Z,6.90
2019-05-17T03:22:35.903Z,6.90
2019-05-17T03:27:42.547Z,6.90
2019-05-17T03:32:48.561Z,7.10
2019-05-17T03:37:53.142Z,7.20
2019-05-17T03:42:57.092Z,7.30
2019-05-17T03:48:04.238Z,7.60
2019-05-17T03:53:06.093Z,7.70
2019-05-17T03:58:12.525Z,7.30
2019-05-17T04:03:15.012Z,7.10
2019-05-17T04:08:18.607Z,7.10
2019-05-17T04:13:23.449Z,7.30
2019-05-17T04:18:27.474Z,7.10
2019-05-17T04:23:33.992Z,7.30
2019-05-17T04:28:36.388Z,7.40
2019-05-17T04:33:42.654Z,7.30
2019-05-17T04:38:45.238Z,7.10
2019-05-17T04:43:48.837Z,6.60
2019-05-17T04:48:53.645Z,6.90
2019-05-17T04:53:57.705Z,7.30
2019-05-17T04:59:03.296Z,7.40
2019-05-17T05:04:06.567Z,7.40
2019-05-17T05:09:12.730Z,7.70
2019-05-17T05:14:15.495Z,8.00
2019-05-17T05:19:19.104Z,8.10
2019-05-17T05:24:22.704Z,8.00
2019-05-17T05:29:26.314Z,8.10
2019-05-17T05:34:32.086Z,8.30
2019-05-17T05:39:35.390Z,8.50
2019-05-17T05:44:46.123Z,8.30
2019-05-17T05:49:51.908Z,8.80
2019-05-17T05:54:55.004Z,8.80
2019-05-17T05:59:58.679Z,8.30
2019-05-17T06:05:02.319Z,8.60
2019-05-17T06:10:08.416Z,9.10
2019-05-17T06:15:12.878Z,9.10
2019-05-17T06:20:16.847Z,9.20
2019-05-17T06:25:23.362Z,9.90
2019-05-17T06:30:25.995Z,10.10
2019-05-17T06:35:29.613Z,10.20
2019-05-17T06:40:33.266Z,10.10
2019-05-17T06:45:36.941Z,10.20
2019-05-17T06:50:43.122Z,10.30
2019-05-17T06:55:47.239Z,10.30
2019-05-17T07:00:50.917Z,10.60
2019-05-17T07:06:02.179Z,11.00
2019-05-17T07:11:05.858Z,10.60
2019-05-17T07:16:10.249Z,10.40
2019-05-17T07:21:14.039Z,9.80
2019-05-17T07:26:19.746Z,10.20
2019-05-17T07:31:23.403Z,10.50
2019-05-17T07:36:26.995Z,11.30
2019-05-17T07:41:30.628Z,10.70
2019-05-17T07:46:34.214Z,10.60
2019-05-17T07:51:39.864Z,11.10
2019-05-17T07:56:43.479Z,10.80
2019-05-17T08:01:47.083Z,11.50
2019-05-17T08:06:50.709Z,11.80
2019-05-17T08:11:54.328Z,11.40
2019-05-17T08:16:59.853Z,11.50
2019-05-17T08:22:03.213Z,11.70
2019-05-17T08:27:06.815Z,12.30
2019-05-17T08:32:11.247Z,12.10
2019-05-17T08:37:14.941Z,12.20
2019-05-17T08:42:20.558Z,11.80
2019-05-17T08:47:24.436Z,12.70
2019-05-17T08:52:29.435Z,12.90
2019-05-17T08:57:33.199Z,12.60
2019-05-17T09:02:36.802Z,13.60
2019-05-17T09:07:40.557Z,12.90
2019-05-17T09:12:44.147Z,12.80
2019-05-17T09:17:49.714Z,12.60
2019-05-17T09:22:53.036Z,13.10
2019-05-17T09:27:56.657Z,13.30
2019-05-17T09:33:00.469Z,13.50
2019-05-17T09:38:04.056Z,14.00
2019-05-17T09:43:09.868Z,14.50
2019-05-17T09:48:13.118Z,14.90
2019-05-17T09:53:16.696Z,14.80
2019-05-17T09:58:21.622Z,14.50
2019-05-17T10:03:25.541Z,14.60
2019-05-17T10:08:29.131Z,15.30
2019-05-17T10:13:32.737Z,15.70
2019-05-17T10:18:36.414Z,16.20
2019-05-17T10:23:40.690Z,16.30
2019-05-17T10:28:44.511Z,16.80
2019-05-17T10:33:49.520Z,17.40
2019-05-17T10:38:53.415Z,16.60
2019-05-17T10:43:57.032Z,16.80
2019-05-17T10:49:00.648Z,17.80
2019-05-17T10:54:04.592Z,17.90
2019-05-17T10:59:09.838Z,17.90
2019-05-17T11:04:13.786Z,18.40
2019-05-17T11:09:20.226Z,18.80
2019-05-17T11:14:22.688Z,19.10
2019-05-17T11:19:26.346Z,19.20
2019-05-17T11:24:29.960Z,19.20
2019-05-17T11:29:33.571Z,18.80
2019-05-17T11:34:37.234Z,19.70
2019-05-17T11:39:40.989Z,20.50
2019-05-17T11:44:44.600Z,20.90
2019-05-17T11:49:49.024Z,21.40
2019-05-17T11:54:52.723Z,21.30
2019-05-17T11:59:56.351Z,21.70
2019-05-17T12:05:00.051Z,21.20
2019-05-17T12:10:07.518Z,21.10
2019-05-17T12:15:11.480Z,21.30
2019-05-17T12:20:15.711Z,21.60
2019-05-17T12:25:19.459Z,21.40
2019-05-17T12:30:23.202Z,21.60
2019-05-17T12:35:26.798Z,21.40
2019-05-17T12:40:30.547Z,21.10
2019-05-17T12:45:34.258Z,21.70
2019-05-17T12:50:37.859Z,22.20
2019-05-17T12:55:41.490Z,21.90
2019-05-17T13:00:45.119Z,21.80
2019-05-17T13:05:48.733Z,21.60
2019-05-17T13:10:52.332Z,21.50
2019-05-17T13:15:55.935Z,22.20
2019-05-17T13:20:59.558Z,22.10
2019-05-17T13:26:03.169Z,22.60
2019-05-17T13:31:06.801Z,23.40
2019-05-17T13:36:10.529Z,23.20
2019-05-17T13:41:14.244Z,23.50
2019-05-17T13:46:30.697Z,23.70
2019-05-17T13:51:23.248Z,23.20
2019-05-17T13:56:26.882Z,22.20
2019-05-17T14:01:30.496Z,22.40
2019-05-17T14:06:34.129Z,22.40
2019-05-17T14:11:37.726Z,22.00
2019-05-17T14:16:41.346Z,23.20
2019-05-17T14:21:45.137Z,23.20
2019-05-17T14:26:48.823Z,23.60
2019-05-17T14:31:52.435Z,22.40
2019-05-17T14:36:56.066Z,21.70
2019-05-17T14:41:59.743Z,22.10
2019-05-17T14:47:03.428Z,22.20
2019-05-17T14:52:07.072Z,22.70
2019-05-17T14:57:10.722Z,22.40
2019-05-17T15:02:14.343Z,22.20
2019-05-17T15:07:17.964Z,21.90
2019-05-17T15:12:28.136Z,21.90
2019-05-17T15:17:26.839Z,23.20
2019-05-17T15:22:30.663Z,23.50
2019-05-17T15:27:34.274Z,22.90
2019-05-17T15:32:37.987Z,22.90
2019-05-17T15:37:53.712Z,22.20
2019-05-17T15:42:57.309Z,21.50
2019-05-17T15:48:00.944Z,21.80
2019-05-17T15:53:04.619Z,21.80
2019-05-17T15:58:08.222Z,21.90
2019-05-17T16:03:11.918Z,21.60
2019-05-17T16:08:15.774Z,21.80
2019-05-17T16:13:19.369Z,21.80
2019-05-17T16:18:23.171Z,22.70
2019-05-17T16:23:26.852Z,23.70
2019-05-17T16:28:30.448Z,23.70
2019-05-17T16:33:34.217Z,22.90
2019-05-17T16:38:37.969Z,22.50
2019-05-17T16:43:41.586Z,22.50
2019-05-17T16:48:45.363Z,23.10
2019-05-17T16:53:49.040Z,23.70
2019-05-17T16:58:52.726Z,24.10
2019-05-17T17:03:56.348Z,23.70
2019-05-17T17:08:59.949Z,23.30
2019-05-17T17:14:04.225Z,22.90
2019-05-17T17:19:07.950Z,22.70
2019-05-17T17:24:11.636Z,21.80
2019-05-17T17:29:15.315Z,21.70
2019-05-17T17:34:18.971Z,21.80
2019-05-17T17:39:22.580Z,22.00
2019-05-17T17:44:26.326Z,21.70
2019-05-17T17:49:30.102Z,21.00
2019-05-17T17:54:33.719Z,21.20
2019-05-17T17:59:37.323Z,21.10
2019-05-17T18:04:40.976Z,21.00
2019-05-17T18:09:44.615Z,20.40
2019-05-17T18:14:48.251Z,20.30
2019-05-17T18:19:51.933Z,20.10
2019-05-17T18:24:55.549Z,20.00
2019-05-17T18:29:59.263Z,19.90
2019-05-17T18:35:03.347Z,19.90
2019-05-17T18:40:07.086Z,19.90
2019-05-17T18:45:10.918Z,19.40
2019-05-17T18:50:14.730Z,19.30
2019-05-17T18:55:18.593Z,19.10
2019-05-17T19:00:22.542Z,18.70
2019-05-17T19:05:26.141Z,18.20
2019-05-17T19:10:29.819Z,17.90
2019-05-17T19:15:33.418Z,18.00
2019-05-17T19:20:37.174Z,17.90
2019-05-17T19:25:40.956Z,17.70
2019-05-17T19:30:44.625Z,17.60
2019-05-17T19:35:48.349Z,17.50
2019-05-17T19:40:51.957Z,17.20
2019-05-17T19:45:55.578Z,16.80
2019-05-17T19:50:59.206Z,16.40
2019-05-17T19:56:02.899Z,16.50
2019-05-17T20:01:06.664Z,16.40
2019-05-17T20:06:10.279Z,16.30
2019-05-17T20:11:13.906Z,16.20
2019-05-17T20:16:17.665Z,15.60
2019-05-17T20:21:21.277Z,15.10
2019-05-17T20:26:24.880Z,15.00
2019-05-17T20:31:28.574Z,14.90
2019-05-17T20:36:32.261Z,14.90
2019-05-17T20:41:35.940Z,15.00
2019-05-17T20:46:39.550Z,14.90
2019-05-17T20:51:43.154Z,15.20
2019-05-17T20:56:46.926Z,15.10
2019-05-17T21:01:59.614Z,15.10
2019-05-17T21:07:03.324Z,14.90
2019-05-17T21:12:25.158Z,14.50
2019-05-17T21:17:28.828Z,14.60
2019-05-17T21:22:34.133Z,14.80
2019-05-17T21:27:39.377Z,14.60
2019-05-17T21:32:44.646Z,14.70
2019-05-17T21:37:53.698Z,14.90
2019-05-17T21:42:57.313Z,14.90
2019-05-17T21:48:03.966Z,14.50
2019-05-17T21:53:10.522Z,14.70
2019-05-17T21:58:20.504Z,14.90
2019-05-17T22:03:28.450Z,15.10
2019-05-17T22:08:32.205Z,15.30
2019-05-17T22:13:36.864Z,15.10
2019-05-17T22:18:40.554Z,15.10
2019-05-17T22:23:44.327Z,15.30
2019-05-17T22:28:48.908Z,15.00
2019-05-17T22:33:55.236Z,14.30
2019-05-17T22:38:58.841Z,14.90
2019-05-17T22:44:02.444Z,15.00
2019-05-17T22:49:10.701Z,14.80
2019-05-17T22:54:14.367Z,15.00
2019-05-17T22:59:20.911Z,15.40
2019-05-17T23:04:24.527Z,15.40
2019-05-17T23:09:31.121Z,14.90
2019-05-17T23:14:34.723Z,15.00
2019-05-17T23:19:38.328Z,15.20
2019-05-17T23:24:41.935Z,15.10
2019-05-17T23:29:47.179Z,14.90
2019-05-17T23:34:50.843Z,14.50
2019-05-17T23:40:07.555Z,14.50
2019-05-17T23:45:11.319Z,14.70
2019-05-17T23:50:15.230Z,14.50
2019-05-17T23:55:18.907Z,14.10
